M/y Paradigm — V7TE6 — position and weather

sailwx.info

Track history (hours):
 
Tides and Currents Weather Stations Pressure Air Temp Water Temp Dewpoint Dewpoint Depression Visibility Wind Speed Wind Dir Waves Ship Positions

M/y Paradigm

Last reported at 2016-May-28 20:25 UTC. Time now 2016-May-28 20:42 UTC.
Position N 26°06' W 080°10'.

Length 35 m.

Type: Pleasure craft. MMSI: 538070694.

Date/timePositionNaut miles runAvg speedWind from/ knotsBaromVisibWave heightAir tempDewpointWater temp
2016-May-28 20:25N 26°06' W 080°10'0 0.0
2016-May-28 19:25N 26°06' W 080°10'0 0.0
2016-May-28 18:28N 26°06' W 080°10'0 0.0
2016-May-28 17:28N 26°06' W 080°10'0 0.0
2016-May-28 16:28N 26°06' W 080°10'0 0.0
2016-May-28 15:31N 26°06' W 080°10'0 0.0
2016-May-28 14:31N 26°06' W 080°10'0 0.0
2016-May-28 13:31N 26°06' W 080°10'2 2.4
2016-May-28 12:29N 26°07' W 080°08'1 1.3
2016-May-28 11:30N 26°06' W 080°07'0 0.0
2016-May-28 10:33N 26°06' W 080°07'0 0.0
2016-May-28 09:33N 26°06' W 080°07'0 0.0
2016-May-28 08:33N 26°06' W 080°07'0 0.0
2016-May-28 07:33N 26°06' W 080°07'0 0.0
2016-May-28 06:24N 26°06' W 080°07'0 0.0
2016-May-28 05:27N 26°06' W 080°07'0 0.0
2016-May-28 04:27N 26°06' W 080°07'0 0.0
2016-May-28 03:27N 26°06' W 080°07'0 0.0
2016-May-28 02:30N 26°06' W 080°07'0 0.0
2016-May-28 01:30N 26°06' W 080°07'0 0.2
2016-May-28 00:28N 26°06' W 080°07'7 5.5
2016-May-27 23:08N 25°59' W 080°07'2 0.7
2016-May-27 19:27N 26°01' W 080°07'3 3.2
2016-May-27 18:27N 26°04' W 080°07'3 3.7
2016-May-27 17:33N 26°07' W 080°09'2 1.9
2016-May-27 16:30N 26°06' W 080°10'0 0.0
2016-May-27 15:30N 26°06' W 080°10'0 0.0
2016-May-27 14:33N 26°06' W 080°10'0 0.0
2016-May-27 13:30N 26°06' W 080°10'0 0.0
2016-May-27 12:33N 26°06' W 080°10'0 0.0
2016-May-27 11:33N 26°06' W 080°10'0 0.0
2016-May-27 10:33N 26°06' W 080°10'0 0.0
2016-May-27 09:33N 26°06' W 080°10'0 0.0
2016-May-27 08:33N 26°06' W 080°10'0 0.0
2016-May-27 07:24N 26°06' W 080°10'0 0.0
2016-May-27 06:27N 26°06' W 080°10'0 0.0
2016-May-27 05:27N 26°06' W 080°10'0 0.0
2016-May-27 04:27N 26°06' W 080°10'0 0.0
2016-May-27 03:30N 26°06' W 080°10'0 0.0
2016-May-27 02:30N 26°06' W 080°10'0 0.0
2016-May-27 01:30N 26°06' W 080°10'0 0.0
2016-May-27 00:33N 26°06' W 080°10'0 0.0
2016-May-26 23:33N 26°06' W 080°10'0 0.0
2016-May-26 22:33N 26°06' W 080°10'0 0.0
2016-May-26 21:33N 26°06' W 080°10'0 0.0
2016-May-26 20:33N 26°06' W 080°10'0 0.0
2016-May-26 19:33N 26°06' W 080°10'0 0.0
2016-May-26 18:33N 26°06' W 080°10'0 0.0
2016-May-26 17:24N 26°06' W 080°10'0 0.0
2016-May-26 16:27N 26°06' W 080°10'0 0.0
2016-May-26 15:27N 26°06' W 080°10'0 0.0
2016-May-26 14:30N 26°06' W 080°10'0 0.0
2016-May-26 13:30N 26°06' W 080°10'0 0.0
2016-May-26 12:30N 26°06' W 080°10'0 0.0
2016-May-26 11:33N 26°06' W 080°10'0 0.0
2016-May-26 10:33N 26°06' W 080°10'0 0.0
2016-May-26 09:33N 26°06' W 080°10'0 0.0
2016-May-26 08:33N 26°06' W 080°10'0 0.0
2016-May-26 07:33N 26°06' W 080°10'0 0.0
2016-May-26 06:33N 26°06' W 080°10'0 0.0
2016-May-26 05:33N 26°06' W 080°10'0 0.0
2016-May-26 04:33N 26°06' W 080°10'0 0.0
2016-May-26 03:24N 26°06' W 080°10'0 0.0
2016-May-26 02:27N 26°06' W 080°10'0 0.0
2016-May-26 01:27N 26°06' W 080°10'0 0.0
2016-May-26 00:27N 26°06' W 080°10'0 0.0
2016-May-25 23:30N 26°06' W 080°10'0 0.0
2016-May-25 22:30N 26°06' W 080°10'0 0.0
2016-May-25 21:33N 26°06' W 080°10'0 0.0
2016-May-25 20:33N 26°06' W 080°10'0 0.0
2016-May-25 19:33N 26°06' W 080°10'0 0.0
2016-May-25 18:33N 26°06' W 080°10'0 0.0
2016-May-25 17:33N 26°06' W 080°10'0 0.0
2016-May-25 16:33N 26°06' W 080°10'0 0.0
2016-May-25 15:33N 26°06' W 080°10'0 0.0
2016-May-25 14:33N 26°06' W 080°10'0 0.0
2016-May-25 13:24N 26°06' W 080°10'0 0.0
2016-May-25 12:27N 26°06' W 080°10'0 0.0
2016-May-25 11:27N 26°06' W 080°10'0 0.0
2016-May-25 10:27N 26°06' W 080°10'0 0.0
2016-May-25 09:30N 26°06' W 080°10'0 0.0
2016-May-25 08:30N 26°06' W 080°10'0 0.0
2016-May-25 07:30N 26°06' W 080°10'0 0.0
2016-May-25 06:33N 26°06' W 080°10'0 0.0
2016-May-25 05:33N 26°06' W 080°10'0 0.0
2016-May-25 04:33N 26°06' W 080°10'0 0.0
2016-May-25 03:33N 26°06' W 080°10'0 0.0
2016-May-25 02:33N 26°06' W 080°10'0 0.0
2016-May-25 01:33N 26°06' W 080°10'0 0.0
2016-May-25 00:24N 26°06' W 080°10'0 0.0
2016-May-24 23:24N 26°06' W 080°10'0 0.0
2016-May-24 22:27N 26°06' W 080°10'0 0.0
2016-May-24 21:27N 26°06' W 080°10'0 0.0
2016-May-24 20:27N 26°06' W 080°10'0 0.0
2016-May-24 19:30N 26°06' W 080°10'0 0.0
2016-May-24 18:30N 26°06' W 080°10'0 0.0
2016-May-24 17:30N 26°06' W 080°10'0 0.0
2016-May-24 16:33N 26°06' W 080°10'0 0.0
2016-May-24 15:33N 26°06' W 080°10'0 0.0
2016-May-24 14:33N 26°06' W 080°10'0 0.0
2016-May-24 13:33N 26°06' W 080°10'0 0.0
2016-May-24 12:33N 26°06' W 080°10'0 0.0
2016-May-24 11:33N 26°06' W 080°10'0 0.0
2016-May-24 10:33N 26°06' W 080°10'0 0.0
2016-May-24 09:24N 26°06' W 080°10'0 0.0
2016-May-24 08:27N 26°06' W 080°10'0 0.0
2016-May-24 07:27N 26°06' W 080°10'0 0.0
2016-May-24 06:27N 26°06' W 080°10'0 0.0
2016-May-24 05:30N 26°06' W 080°10'0 0.0
2016-May-24 04:30N 26°06' W 080°10'0 0.0
2016-May-24 03:30N 26°06' W 080°10'0 0.0
2016-May-24 02:33N 26°06' W 080°10'0 0.0
2016-May-24 01:33N 26°06' W 080°10'0 0.0
2016-May-24 00:33N 26°06' W 080°10'0 0.0
2016-May-23 23:33N 26°06' W 080°10'0 0.0
2016-May-23 22:33N 26°06' W 080°10'0 0.0
2016-May-23 21:33N 26°06' W 080°10'0 0.0
2016-May-23 20:24N 26°06' W 080°10'0 0.0
2016-May-23 19:24N 26°06' W 080°10'0 0.0
2016-May-23 18:24N 26°06' W 080°10'0 0.0
2016-May-23 17:27N 26°06' W 080°10'0 0.0
2016-May-23 16:27N 26°06' W 080°10'0 0.0
2016-May-23 15:30N 26°06' W 080°10'0 0.0
2016-May-23 14:30N 26°06' W 080°10'0 0.0
2016-May-23 13:30N 26°06' W 080°10'0 0.0
2016-May-23 12:33N 26°06' W 080°10'0 0.0
2016-May-23 11:33N 26°06' W 080°10'0 0.0
2016-May-23 10:33N 26°06' W 080°10'0 0.0
2016-May-23 09:33N 26°06' W 080°10'0 0.0
2016-May-23 08:33N 26°06' W 080°10'0 0.0
2016-May-23 07:33N 26°06' W 080°10'0 0.0
2016-May-23 06:33N 26°06' W 080°10'0 0.0
2016-May-23 05:24N 26°06' W 080°10'0 0.0
2016-May-23 04:27N 26°06' W 080°10'0 0.0
2016-May-23 03:27N 26°06' W 080°10'0 0.0
2016-May-23 02:27N 26°06' W 080°10'0 0.0
2016-May-23 01:30N 26°06' W 080°10'0 0.0
2016-May-23 00:30N 26°06' W 080°10'0 0.0
2016-May-22 23:30N 26°06' W 080°10'0 0.0
2016-May-22 22:33N 26°06' W 080°10'0 0.0
2016-May-22 21:33N 26°06' W 080°10'0 0.0
2016-May-22 20:33N 26°06' W 080°10'0 0.0
2016-May-22 19:33N 26°06' W 080°10'0 0.0
2016-May-22 18:33N 26°06' W 080°10'0 0.0
2016-May-22 17:33N 26°06' W 080°10'0 0.0
2016-May-22 16:33N 26°06' W 080°10'0 0.0
2016-May-22 15:09N 26°06' W 080°10'0 0.0
2016-May-22 14:27N 26°06' W 080°10'0 0.0
2016-May-22 13:27N 26°06' W 080°10'0 0.0
2016-May-22 12:27N 26°06' W 080°10'0 0.0
2016-May-22 11:30N 26°06' W 080°10'0 0.0
2016-May-22 10:30N 26°06' W 080°10'0 0.0
2016-May-22 09:33N 26°06' W 080°10'0 0.0
2016-May-22 08:33N 26°06' W 080°10'0 0.0
2016-May-22 07:33N 26°06' W 080°10'0 0.0
2016-May-22 06:33N 26°06' W 080°10'0 0.0
2016-May-22 05:33N 26°06' W 080°10'0 0.0
2016-May-22 04:33N 26°06' W 080°10'0 0.0
2016-May-22 03:33N 26°06' W 080°10'0 0.0
2016-May-22 02:33N 26°06' W 080°10'0 0.0
2016-May-22 01:21N 26°06' W 080°10'0 0.0
2016-May-22 00:27N 26°06' W 080°10'0 0.0
2016-May-21 23:27N 26°06' W 080°10'0 0.0
2016-May-21 22:27N 26°06' W 080°10'0 0.0
2016-May-21 21:30N 26°06' W 080°10'0 0.0
2016-May-21 20:30N 26°06' W 080°10'0 0.0
2016-May-21 19:30N 26°06' W 080°10'0 0.0
2016-May-21 18:33N 26°06' W 080°10'0 0.0
2016-May-21 17:33N 26°06' W 080°10'0 0.0
2016-May-21 16:33N 26°06' W 080°10'0 0.0
2016-May-21 15:33N 26°06' W 080°10'0 0.0
2016-May-21 14:33N 26°06' W 080°10'0 0.0
2016-May-21 13:33N 26°06' W 080°10'0 0.0
2016-May-21 12:33N 26°06' W 080°10'0 0.0
2016-May-21 11:24N 26°06' W 080°10'0 0.0
2016-May-21 10:27N 26°06' W 080°10'0 0.0
2016-May-21 09:24N 26°06' W 080°10'0 0.0
2016-May-21 08:27N 26°06' W 080°10'0 0.0
2016-May-21 07:30N 26°06' W 080°10'0 0.0
2016-May-21 06:30N 26°06' W 080°10'0 0.0
2016-May-21 05:30N 26°06' W 080°10'0 0.0
2016-May-21 04:30N 26°06' W 080°10'0 0.0
2016-May-21 03:33N 26°06' W 080°10'0 0.0
2016-May-21 02:33N 26°06' W 080°10'0 0.0
2016-May-21 01:33N 26°06' W 080°10'0 0.0
2016-May-21 00:33N 26°06' W 080°10'0 0.0
2016-May-20 23:33N 26°06' W 080°10'0 0.0
2016-May-20 22:33N 26°06' W 080°10'0 0.0
2016-May-20 21:24N 26°06' W 080°10'0 0.1
2016-May-20 20:33N 26°06' W 080°10'2 2.2
2016-May-20 19:33N 26°07' W 080°09'2 1.6
2016-May-20 18:26N 26°07' W 080°07'1 1.0
2016-May-20 17:24N 26°07' W 080°08'4 4.4
2016-May-20 16:33N 26°05' W 080°04'1110.3
2016-May-20 15:32N 25°54' W 080°05'  
Track history (hours):
 
Tides and Currents Weather Stations Pressure Air Temp Water Temp Dewpoint Dewpoint Depression Visibility Wind Speed Wind Dir Waves Ship Positions

M/y Paradigm

Last reported at 2016-May-28 20:25 UTC. Time now 2016-May-28 20:42 UTC.
Position N 26°06' W 080°10'.

Length 35 m.

Type: Pleasure craft. MMSI: 538070694.

Date/timePositionNaut miles runAvg speedWind from/ knotsBaromVisibWave heightAir tempDewpointWater temp
2016-May-28 20:25N 26°06' W 080°10'0 0.0
2016-May-28 19:25N 26°06' W 080°10'0 0.0
2016-May-28 18:28N 26°06' W 080°10'0 0.0
2016-May-28 17:28N 26°06' W 080°10'0 0.0
2016-May-28 16:28N 26°06' W 080°10'0 0.0
2016-May-28 15:31N 26°06' W 080°10'0 0.0
2016-May-28 14:31N 26°06' W 080°10'0 0.0
2016-May-28 13:31N 26°06' W 080°10'2 2.4
2016-May-28 12:29N 26°07' W 080°08'1 1.3
2016-May-28 11:30N 26°06' W 080°07'0 0.0
2016-May-28 10:33N 26°06' W 080°07'0 0.0
2016-May-28 09:33N 26°06' W 080°07'0 0.0
2016-May-28 08:33N 26°06' W 080°07'0 0.0
2016-May-28 07:33N 26°06' W 080°07'0 0.0
2016-May-28 06:24N 26°06' W 080°07'0 0.0
2016-May-28 05:27N 26°06' W 080°07'0 0.0
2016-May-28 04:27N 26°06' W 080°07'0 0.0
2016-May-28 03:27N 26°06' W 080°07'0 0.0
2016-May-28 02:30N 26°06' W 080°07'0 0.0
2016-May-28 01:30N 26°06' W 080°07'0 0.2
2016-May-28 00:28N 26°06' W 080°07'7 5.5
2016-May-27 23:08N 25°59' W 080°07'2 0.7
2016-May-27 19:27N 26°01' W 080°07'3 3.2
2016-May-27 18:27N 26°04' W 080°07'3 3.7
2016-May-27 17:33N 26°07' W 080°09'2 1.9
2016-May-27 16:30N 26°06' W 080°10'0 0.0
2016-May-27 15:30N 26°06' W 080°10'0 0.0
2016-May-27 14:33N 26°06' W 080°10'0 0.0
2016-May-27 13:30N 26°06' W 080°10'0 0.0
2016-May-27 12:33N 26°06' W 080°10'0 0.0
2016-May-27 11:33N 26°06' W 080°10'0 0.0
2016-May-27 10:33N 26°06' W 080°10'0 0.0
2016-May-27 09:33N 26°06' W 080°10'0 0.0
2016-May-27 08:33N 26°06' W 080°10'0 0.0
2016-May-27 07:24N 26°06' W 080°10'0 0.0
2016-May-27 06:27N 26°06' W 080°10'0 0.0
2016-May-27 05:27N 26°06' W 080°10'0 0.0
2016-May-27 04:27N 26°06' W 080°10'0 0.0
2016-May-27 03:30N 26°06' W 080°10'0 0.0
2016-May-27 02:30N 26°06' W 080°10'0 0.0
2016-May-27 01:30N 26°06' W 080°10'0 0.0
2016-May-27 00:33N 26°06' W 080°10'0 0.0
2016-May-26 23:33N 26°06' W 080°10'0 0.0
2016-May-26 22:33N 26°06' W 080°10'0 0.0
2016-May-26 21:33N 26°06' W 080°10'0 0.0
2016-May-26 20:33N 26°06' W 080°10'0 0.0
2016-May-26 19:33N 26°06' W 080°10'0 0.0
2016-May-26 18:33N 26°06' W 080°10'0 0.0
2016-May-26 17:24N 26°06' W 080°10'0 0.0
2016-May-26 16:27N 26°06' W 080°10'0 0.0
2016-May-26 15:27N 26°06' W 080°10'0 0.0
2016-May-26 14:30N 26°06' W 080°10'0 0.0
2016-May-26 13:30N 26°06' W 080°10'0 0.0
2016-May-26 12:30N 26°06' W 080°10'0 0.0
2016-May-26 11:33N 26°06' W 080°10'0 0.0
2016-May-26 10:33N 26°06' W 080°10'0 0.0
2016-May-26 09:33N 26°06' W 080°10'0 0.0
2016-May-26 08:33N 26°06' W 080°10'0 0.0
2016-May-26 07:33N 26°06' W 080°10'0 0.0
2016-May-26 06:33N 26°06' W 080°10'0 0.0
2016-May-26 05:33N 26°06' W 080°10'0 0.0
2016-May-26 04:33N 26°06' W 080°10'0 0.0
2016-May-26 03:24N 26°06' W 080°10'0 0.0
2016-May-26 02:27N 26°06' W 080°10'0 0.0
2016-May-26 01:27N 26°06' W 080°10'0 0.0
2016-May-26 00:27N 26°06' W 080°10'0 0.0
2016-May-25 23:30N 26°06' W 080°10'0 0.0
2016-May-25 22:30N 26°06' W 080°10'0 0.0
2016-May-25 21:33N 26°06' W 080°10'0 0.0
2016-May-25 20:33N 26°06' W 080°10'0 0.0
2016-May-25 19:33N 26°06' W 080°10'0 0.0
2016-May-25 18:33N 26°06' W 080°10'0 0.0
2016-May-25 17:33N 26°06' W 080°10'0 0.0
2016-May-25 16:33N 26°06' W 080°10'0 0.0
2016-May-25 15:33N 26°06' W 080°10'0 0.0
2016-May-25 14:33N 26°06' W 080°10'0 0.0
2016-May-25 13:24N 26°06' W 080°10'0 0.0
2016-May-25 12:27N 26°06' W 080°10'0 0.0
2016-May-25 11:27N 26°06' W 080°10'0 0.0
2016-May-25 10:27N 26°06' W 080°10'0 0.0
2016-May-25 09:30N 26°06' W 080°10'0 0.0
2016-May-25 08:30N 26°06' W 080°10'0 0.0
2016-May-25 07:30N 26°06' W 080°10'0 0.0
2016-May-25 06:33N 26°06' W 080°10'0 0.0
2016-May-25 05:33N 26°06' W 080°10'0 0.0
2016-May-25 04:33N 26°06' W 080°10'0 0.0
2016-May-25 03:33N 26°06' W 080°10'0 0.0
2016-May-25 02:33N 26°06' W 080°10'0 0.0
2016-May-25 01:33N 26°06' W 080°10'0 0.0
2016-May-25 00:24N 26°06' W 080°10'0 0.0
2016-May-24 23:24N 26°06' W 080°10'0 0.0
2016-May-24 22:27N 26°06' W 080°10'0 0.0
2016-May-24 21:27N 26°06' W 080°10'0 0.0
2016-May-24 20:27N 26°06' W 080°10'0 0.0
2016-May-24 19:30N 26°06' W 080°10'0 0.0
2016-May-24 18:30N 26°06' W 080°10'0 0.0
2016-May-24 17:30N 26°06' W 080°10'0 0.0
2016-May-24 16:33N 26°06' W 080°10'0 0.0
2016-May-24 15:33N 26°06' W 080°10'0 0.0
2016-May-24 14:33N 26°06' W 080°10'0 0.0
2016-May-24 13:33N 26°06' W 080°10'0 0.0
2016-May-24 12:33N 26°06' W 080°10'0 0.0
2016-May-24 11:33N 26°06' W 080°10'0 0.0
2016-May-24 10:33N 26°06' W 080°10'0 0.0
2016-May-24 09:24N 26°06' W 080°10'0 0.0
2016-May-24 08:27N 26°06' W 080°10'0 0.0
2016-May-24 07:27N 26°06' W 080°10'0 0.0
2016-May-24 06:27N 26°06' W 080°10'0 0.0
2016-May-24 05:30N 26°06' W 080°10'0 0.0
2016-May-24 04:30N 26°06' W 080°10'0 0.0
2016-May-24 03:30N 26°06' W 080°10'0 0.0
2016-May-24 02:33N 26°06' W 080°10'0 0.0
2016-May-24 01:33N 26°06' W 080°10'0 0.0
2016-May-24 00:33N 26°06' W 080°10'0 0.0
2016-May-23 23:33N 26°06' W 080°10'0 0.0
2016-May-23 22:33N 26°06' W 080°10'0 0.0
2016-May-23 21:33N 26°06' W 080°10'0 0.0
2016-May-23 20:24N 26°06' W 080°10'0 0.0
2016-May-23 19:24N 26°06' W 080°10'0 0.0
2016-May-23 18:24N 26°06' W 080°10'0 0.0
2016-May-23 17:27N 26°06' W 080°10'0 0.0
2016-May-23 16:27N 26°06' W 080°10'0 0.0
2016-May-23 15:30N 26°06' W 080°10'0 0.0
2016-May-23 14:30N 26°06' W 080°10'0 0.0
2016-May-23 13:30N 26°06' W 080°10'0 0.0
2016-May-23 12:33N 26°06' W 080°10'0 0.0
2016-May-23 11:33N 26°06' W 080°10'0 0.0
2016-May-23 10:33N 26°06' W 080°10'0 0.0
2016-May-23 09:33N 26°06' W 080°10'0 0.0
2016-May-23 08:33N 26°06' W 080°10'0 0.0
2016-May-23 07:33N 26°06' W 080°10'0 0.0
2016-May-23 06:33N 26°06' W 080°10'0 0.0
2016-May-23 05:24N 26°06' W 080°10'0 0.0
2016-May-23 04:27N 26°06' W 080°10'0 0.0
2016-May-23 03:27N 26°06' W 080°10'0 0.0
2016-May-23 02:27N 26°06' W 080°10'0 0.0
2016-May-23 01:30N 26°06' W 080°10'0 0.0
2016-May-23 00:30N 26°06' W 080°10'0 0.0
2016-May-22 23:30N 26°06' W 080°10'0 0.0
2016-May-22 22:33N 26°06' W 080°10'0 0.0
2016-May-22 21:33N 26°06' W 080°10'0 0.0
2016-May-22 20:33N 26°06' W 080°10'0 0.0
2016-May-22 19:33N 26°06' W 080°10'0 0.0
2016-May-22 18:33N 26°06' W 080°10'0 0.0
2016-May-22 17:33N 26°06' W 080°10'0 0.0
2016-May-22 16:33N 26°06' W 080°10'0 0.0
2016-May-22 15:09N 26°06' W 080°10'0 0.0
2016-May-22 14:27N 26°06' W 080°10'0 0.0
2016-May-22 13:27N 26°06' W 080°10'0 0.0
2016-May-22 12:27N 26°06' W 080°10'0 0.0
2016-May-22 11:30N 26°06' W 080°10'0 0.0
2016-May-22 10:30N 26°06' W 080°10'0 0.0
2016-May-22 09:33N 26°06' W 080°10'0 0.0
2016-May-22 08:33N 26°06' W 080°10'0 0.0
2016-May-22 07:33N 26°06' W 080°10'0 0.0
2016-May-22 06:33N 26°06' W 080°10'0 0.0
2016-May-22 05:33N 26°06' W 080°10'0 0.0
2016-May-22 04:33N 26°06' W 080°10'0 0.0
2016-May-22 03:33N 26°06' W 080°10'0 0.0
2016-May-22 02:33N 26°06' W 080°10'0 0.0
2016-May-22 01:21N 26°06' W 080°10'0 0.0
2016-May-22 00:27N 26°06' W 080°10'0 0.0
2016-May-21 23:27N 26°06' W 080°10'0 0.0
2016-May-21 22:27N 26°06' W 080°10'0 0.0
2016-May-21 21:30N 26°06' W 080°10'0 0.0
2016-May-21 20:30N 26°06' W 080°10'0 0.0
2016-May-21 19:30N 26°06' W 080°10'0 0.0
2016-May-21 18:33N 26°06' W 080°10'0 0.0
2016-May-21 17:33N 26°06' W 080°10'0 0.0
2016-May-21 16:33N 26°06' W 080°10'0 0.0
2016-May-21 15:33N 26°06' W 080°10'0 0.0
2016-May-21 14:33N 26°06' W 080°10'0 0.0
2016-May-21 13:33N 26°06' W 080°10'0 0.0
2016-May-21 12:33N 26°06' W 080°10'0 0.0
2016-May-21 11:24N 26°06' W 080°10'0 0.0
2016-May-21 10:27N 26°06' W 080°10'0 0.0
2016-May-21 09:24N 26°06' W 080°10'0 0.0
2016-May-21 08:27N 26°06' W 080°10'0 0.0
2016-May-21 07:30N 26°06' W 080°10'0 0.0
2016-May-21 06:30N 26°06' W 080°10'0 0.0
2016-May-21 05:30N 26°06' W 080°10'0 0.0
2016-May-21 04:30N 26°06' W 080°10'0 0.0
2016-May-21 03:33N 26°06' W 080°10'0 0.0
2016-May-21 02:33N 26°06' W 080°10'0 0.0
2016-May-21 01:33N 26°06' W 080°10'0 0.0
2016-May-21 00:33N 26°06' W 080°10'0 0.0
2016-May-20 23:33N 26°06' W 080°10'0 0.0
2016-May-20 22:33N 26°06' W 080°10'0 0.0
2016-May-20 21:24N 26°06' W 080°10'0 0.1
2016-May-20 20:33N 26°06' W 080°10'2 2.2
2016-May-20 19:33N 26°07' W 080°09'2 1.6
2016-May-20 18:26N 26°07' W 080°07'1 1.0
2016-May-20 17:24N 26°07' W 080°08'4 4.4
2016-May-20 16:33N 26°05' W 080°04'1110.3
2016-May-20 15:32N 25°54' W 080°05'  

Dump ship's entire track history